Time;durP1;ratioP1;P1;durP2;ratioP2;P2;SDS_P1;SDS_P2;PMS_P1;PMS_P2;Temp;Humidity;BMP_temperature;BMP_pressure;BME280_temperature;BME280_humidity;BME280_pressure;Samples;Min_cycle;Max_cycle;Signal;HPM_P1;HPM_P2
2022/05/14 00:01:13;;;;;;;;;2.00;2.00;;;;;-147.14;100.00;58812.66;4979281;28;45746;-46
2022/05/14 00:03:39;;;;;;;;;4.00;2.33;;;;;-147.14;100.00;58812.66;4978653;28;45445;-47
2022/05/14 00:06:08;;;;;;;;;2.00;2.00;;;;;-147.14;100.00;58812.66;4979198;28;45389;-46
2022/05/14 00:08:34;;;;;;;;;3.33;3.33;;;;;-147.14;100.00;58812.66;4978558;28;45349;-46
2022/05/14 00:13:44;;;;;;;;;2.00;2.00;;;;;-147.14;100.00;58812.66;4978791;28;45365;-47
2022/05/14 00:16:10;;;;;;;;;4.00;3.00;;;;;-147.14;100.00;58812.66;4979218;28;45255;-45
2022/05/14 00:18:36;;;;;;;;;1.00;1.00;;;;;-147.14;100.00;58812.66;4978606;28;46618;-47
2022/05/14 00:21:02;;;;;;;;;2.00;2.00;;;;;-147.14;100.00;58812.66;4979129;28;45369;-46
2022/05/14 00:23:28;;;;;;;;;4.00;2.00;;;;;-147.14;100.00;58812.66;4978368;28;45452;-46
2022/05/14 00:25:54;;;;;;;;;5.33;1.67;;;;;-147.14;100.00;58812.66;4979309;28;45373;-47
2022/05/14 00:28:19;;;;;;;;;4.33;2.00;;;;;-147.14;100.00;58812.66;4978641;28;46058;-45
2022/05/14 00:30:45;;;;;;;;;0.67;0.67;;;;;-147.14;100.00;58812.66;4980976;28;45427;-46
2022/05/14 00:33:11;;;;;;;;;1.00;1.00;;;;;-147.14;100.00;58812.66;4978919;28;45320;-45
2022/05/14 00:35:37;;;;;;;;;2.33;2.33;;;;;-147.14;100.00;58812.66;4978630;28;45337;-46
2022/05/14 00:38:03;;;;;;;;;2.33;2.33;;;;;-147.14;100.00;58812.66;4978322;28;45551;-46
2022/05/14 00:40:35;;;;;;;;;2.00;2.00;;;;;-147.14;100.00;58812.66;4978558;28;45742;-46
2022/05/14 00:43:00;;;;;;;;;3.33;3.33;;;;;-147.14;100.00;58812.66;4979226;28;45307;-46
2022/05/14 00:45:27;;;;;;;;;2.33;2.33;;;;;-147.14;100.00;58812.66;4982223;28;45524;-46
2022/05/14 00:47:55;;;;;;;;;1.33;1.33;;;;;-147.14;100.00;58812.66;4981496;28;46199;-45
2022/05/14 00:50:38;;;;;;;;;3.33;1.67;;;;;-147.14;100.00;58812.66;4982366;28;45328;-48
2022/05/14 00:53:08;;;;;;;;;3.33;3.00;;;;;-147.14;100.00;58812.66;4964168;28;45519;-46
2022/05/14 00:55:33;;;;;;;;;4.00;2.00;;;;;-147.14;100.00;58812.66;4968082;28;45326;-45
2022/05/14 00:58:00;;;;;;;;;3.00;2.00;;;;;-147.14;100.00;58812.66;4981545;28;53357;-46
2022/05/14 01:00:25;;;;;;;;;2.33;2.33;;;;;-147.14;100.00;58812.66;4981910;28;49113;-46
2022/05/14 01:02:51;;;;;;;;;0.67;0.67;;;;;-147.14;100.00;58812.66;4981528;28;45323;-45
2022/05/14 01:05:18;;;;;;;;;1.33;1.33;;;;;-147.14;100.00;58812.66;4981975;28;45287;-47
2022/05/14 01:07:45;;;;;;;;;2.00;2.00;;;;;-147.14;100.00;58812.66;4963585;28;46042;-46
2022/05/14 01:10:12;;;;;;;;;4.33;3.00;;;;;-147.14;100.00;58812.66;4964300;28;45497;-46
2022/05/14 01:12:43;;;;;;;;;4.00;2.00;;;;;-147.14;100.00;58812.66;4963274;28;45548;-46
2022/05/14 01:15:15;;;;;;;;;3.00;3.00;;;;;-147.14;100.00;58812.66;4981720;28;45287;-46
2022/05/14 01:17:41;;;;;;;;;2.00;2.00;;;;;-147.14;100.00;58812.66;4980944;28;46066;-46
2022/05/14 01:20:07;;;;;;;;;2.00;2.00;;;;;-147.14;100.00;58812.66;4981618;28;45347;-45
2022/05/14 01:22:49;;;;;;;;;3.00;3.00;;;;;-147.14;100.00;58812.66;4981403;28;45743;-45
2022/05/14 01:28:14;;;;;;;;;3.00;1.67;;;;;-147.14;100.00;58812.66;4966631;28;45367;-45
2022/05/14 01:30:51;;;;;;;;;2.67;2.00;;;;;-147.14;100.00;58812.66;4982804;28;45262;-46
2022/05/14 01:33:16;;;;;;;;;4.67;4.00;;;;;-147.14;100.00;58812.66;4981669;28;46386;-45
2022/05/14 01:35:42;;;;;;;;;2.00;2.00;;;;;-147.14;100.00;58812.66;4981044;28;45418;-46
2022/05/14 01:38:08;;;;;;;;;2.67;2.67;;;;;-147.14;100.00;58812.66;4981228;28;45871;-45
2022/05/14 01:40:34;;;;;;;;;3.00;3.00;;;;;-147.14;100.00;58812.66;4980747;28;45426;-45
2022/05/14 01:42:59;;;;;;;;;3.67;3.67;;;;;-147.14;100.00;58812.66;4981328;28;45376;-47
2022/05/14 01:45:25;;;;;;;;;3.67;3.00;;;;;-147.14;100.00;58812.66;4981198;28;45588;-46
2022/05/14 01:47:51;;;;;;;;;3.33;3.00;;;;;-147.14;100.00;58812.66;4980472;28;47192;-45
2022/05/14 01:50:16;;;;;;;;;3.00;2.67;;;;;-147.14;100.00;58812.66;4981232;28;45682;-45
2022/05/14 01:52:42;;;;;;;;;1.67;1.67;;;;;-147.14;100.00;58812.66;4980470;28;45493;-46
2022/05/14 01:55:07;;;;;;;;;6.00;5.00;;;;;-147.14;100.00;58812.66;4980125;28;62474;-45
2022/05/14 01:57:33;;;;;;;;;2.50;2.50;;;;;-147.14;100.00;58812.66;4980241;28;47106;-45
2022/05/14 01:59:58;;;;;;;;;4.67;3.00;;;;;-147.14;100.00;58812.66;4981101;28;45207;-45
2022/05/14 02:02:24;;;;;;;;;5.67;5.67;;;;;-147.14;100.00;58812.66;4980148;28;60909;-46
2022/05/14 02:04:49;;;;;;;;;4.00;4.00;;;;;-147.14;100.00;58812.66;4980309;28;61021;-47
2022/05/14 02:07:14;;;;;;;;;5.00;5.00;;;;;-147.14;100.00;58812.66;4980506;28;47080;-45
2022/05/14 02:09:40;;;;;;;;;5.33;3.00;;;;;-147.14;100.00;58812.66;4980557;28;45374;-45
2022/05/14 02:12:05;;;;;;;;;4.67;4.33;;;;;-147.14;100.00;58812.66;4980103;28;58891;-45
2022/05/14 02:14:31;;;;;;;;;5.67;4.00;;;;;-147.14;100.00;58812.66;4980401;28;45409;-45
2022/05/14 02:16:57;;;;;;;;;5.00;5.00;;;;;-147.14;100.00;58812.66;4979708;28;67815;-45
2022/05/14 02:19:23;;;;;;;;;5.33;5.33;;;;;-147.14;100.00;58812.66;4980710;28;45393;-45
2022/05/14 02:21:48;;;;;;;;;7.00;6.00;;;;;-147.14;100.00;58812.66;4979655;28;54626;-45
2022/05/14 02:24:13;;;;;;;;;4.00;4.00;;;;;-147.14;100.00;58812.66;4980848;28;45365;-45
2022/05/14 02:26:39;;;;;;;;;4.67;3.67;;;;;-147.14;100.00;58812.66;4979361;28;68467;-45
2022/05/14 02:29:04;;;;;;;;;6.33;5.33;;;;;-147.14;100.00;58812.66;4980381;28;47010;-46
2022/05/14 02:31:29;;;;;;;;;4.00;2.67;;;;;-147.14;100.00;58812.66;4981408;28;58432;-46
2022/05/14 02:33:55;;;;;;;;;7.33;5.33;;;;;-147.14;100.00;58812.66;4980221;28;58156;-45
2022/05/14 02:36:20;;;;;;;;;4.67;2.67;;;;;-147.14;100.00;58812.66;4979517;28;67474;-47
2022/05/14 02:38:46;;;;;;;;;6.33;5.00;;;;;-147.14;100.00;58812.66;4980184;28;45381;-45
2022/05/14 02:41:13;;;;;;;;;5.00;5.00;;;;;-147.14;100.00;58812.66;4980707;28;45646;-45
2022/05/14 02:43:39;;;;;;;;;4.00;3.33;;;;;-147.14;100.00;58812.66;4979829;28;45314;-47
2022/05/14 02:46:05;;;;;;;;;6.33;5.00;;;;;-147.14;100.00;58812.66;4979948;28;45428;-45
2022/05/14 02:48:31;;;;;;;;;5.00;5.00;;;;;-147.14;100.00;58812.66;4979977;28;45291;-45
2022/05/14 02:50:57;;;;;;;;;6.00;4.33;;;;;-147.14;100.00;58812.66;4980191;28;45263;-46
2022/05/14 02:53:22;;;;;;;;;4.67;3.00;;;;;-147.14;100.00;58812.66;4979967;28;45341;-46
2022/05/14 02:55:48;;;;;;;;;5.00;4.67;;;;;-147.14;100.00;58812.66;4981398;28;45310;-45
2022/05/14 02:59:06;;;;;;;;;4.33;4.33;;;;;-147.14;100.00;58812.66;4980139;28;45329;-45
2022/05/14 03:00:58;;;;;;;;;8.00;5.00;;;;;-147.14;100.00;58812.66;4980047;28;45417;-47
2022/05/14 03:03:23;;;;;;;;;4.67;4.67;;;;;-147.14;100.00;58812.66;4979472;28;63920;-47
2022/05/14 03:05:49;;;;;;;;;5.67;5.33;;;;;-147.14;100.00;58812.66;4977630;28;64764;-45
2022/05/14 03:08:14;;;;;;;;;3.67;3.00;;;;;-147.14;100.00;58812.66;4979270;28;65999;-45
2022/05/14 03:10:40;;;;;;;;;8.00;6.00;;;;;-147.14;100.00;58812.66;4978749;28;57942;-47
2022/05/14 03:13:05;;;;;;;;;6.33;6.33;;;;;-147.14;100.00;58812.66;4980278;28;45444;-46
2022/05/14 03:15:30;;;;;;;;;6.33;5.00;;;;;-147.14;100.00;58812.66;4960851;28;63855;-46
2022/05/14 03:17:56;;;;;;;;;6.67;4.33;;;;;-147.14;100.00;58812.66;4979359;28;64679;-45
2022/05/14 03:20:21;;;;;;;;;6.00;4.67;;;;;-147.14;100.00;58812.66;4978947;28;59823;-46
2022/05/14 03:22:46;;;;;;;;;6.00;6.00;;;;;-147.14;100.00;58812.66;4978914;28;62890;-46
2022/05/14 03:25:12;;;;;;;;;6.67;5.00;;;;;-147.14;100.00;58812.66;4979562;28;45353;-46
2022/05/14 03:27:38;;;;;;;;;5.00;5.00;;;;;-147.14;100.00;58812.66;4979465;28;45533;-46
2022/05/14 03:30:04;;;;;;;;;7.00;5.00;;;;;-147.14;100.00;58812.66;4979730;28;45491;-47
2022/05/14 03:32:29;;;;;;;;;5.33;5.00;;;;;-147.14;100.00;58812.66;4979344;28;45232;-45
2022/05/14 03:34:55;;;;;;;;;6.33;6.00;;;;;-147.14;100.00;58812.66;4978838;28;66447;-46
2022/05/14 03:37:23;;;;;;;;;5.33;5.33;;;;;-147.14;100.00;58812.66;4979607;28;45652;-48
2022/05/14 03:39:48;;;;;;;;;7.00;5.00;;;;;-147.14;100.00;58812.66;4979295;28;45425;-46
2022/05/14 03:42:15;;;;;;;;;6.00;5.67;;;;;-147.14;100.00;58812.66;4979715;28;45806;-45
2022/05/14 03:44:40;;;;;;;;;8.33;6.67;;;;;-147.14;100.00;58812.66;4978858;28;46207;-46
2022/05/14 03:47:05;;;;;;;;;8.00;7.00;;;;;-147.14;100.00;58812.66;4978829;28;62968;-47
2022/05/14 03:49:31;;;;;;;;;6.67;5.67;;;;;-147.14;100.00;58812.66;4978588;28;46537;-48
2022/05/14 03:51:56;;;;;;;;;7.33;6.33;;;;;-147.14;100.00;58812.66;4978978;28;61458;-47
2022/05/14 03:54:22;;;;;;;;;7.33;5.33;;;;;-147.14;100.00;58812.66;4978049;28;45959;-45
2022/05/14 03:56:47;;;;;;;;;6.67;5.33;;;;;-147.14;100.00;58812.66;4981938;28;64602;-46
2022/05/14 03:59:12;;;;;;;;;5.67;5.67;;;;;-147.14;100.00;58812.66;4978536;28;59273;-45
2022/05/14 04:01:38;;;;;;;;;10.00;8.33;;;;;-147.14;100.00;58812.66;4978673;28;59602;-46
2022/05/14 04:04:04;;;;;;;;;8.33;5.67;;;;;-147.14;100.00;58812.66;4978954;28;49631;-45
2022/05/14 04:06:29;;;;;;;;;9.33;7.33;;;;;-147.14;100.00;58812.66;4978881;28;45298;-45
2022/05/14 04:08:55;;;;;;;;;5.67;5.67;;;;;-147.14;100.00;58812.66;4978836;28;45287;-47
2022/05/14 04:11:20;;;;;;;;;7.67;6.33;;;;;-147.14;100.00;58812.66;4979439;28;45430;-45
2022/05/14 04:13:46;;;;;;;;;5.33;5.33;;;;;-147.14;100.00;58812.66;4978268;28;45376;-46
2022/05/14 04:16:11;;;;;;;;;7.33;5.67;;;;;-147.14;100.00;58812.66;4978480;28;65963;-46
2022/05/14 04:18:37;;;;;;;;;6.67;6.67;;;;;-147.14;100.00;58812.66;4963995;28;45789;-47
2022/05/14 04:21:03;;;;;;;;;9.33;8.00;;;;;-147.14;100.00;58812.66;4982864;28;45400;-45
2022/05/14 04:23:30;;;;;;;;;9.00;6.00;;;;;-147.14;100.00;58812.66;4981632;28;46986;-46
2022/05/14 04:25:56;;;;;;;;;7.00;6.00;;;;;-147.14;100.00;58812.66;4981387;28;45486;-46
2022/05/14 04:28:22;;;;;;;;;7.33;7.33;;;;;-147.14;100.00;58812.66;4982345;28;45330;-45
2022/05/14 04:30:48;;;;;;;;;9.33;7.00;;;;;-147.14;100.00;58812.66;4982113;28;45533;-47
2022/05/14 04:33:15;;;;;;;;;6.67;6.67;;;;;-147.14;100.00;58812.66;4982000;28;47136;-46
2022/05/14 04:35:40;;;;;;;;;8.00;8.00;;;;;-147.14;100.00;58812.66;4982080;28;45421;-45
2022/05/14 04:38:06;;;;;;;;;7.33;6.33;;;;;-147.14;100.00;58812.66;4982087;28;45995;-46
2022/05/14 04:40:31;;;;;;;;;9.33;7.33;;;;;-147.14;100.00;58812.66;4981949;28;45950;-46
2022/05/14 04:42:57;;;;;;;;;8.00;7.33;;;;;-147.14;100.00;58812.66;4982178;28;46215;-46
2022/05/14 04:45:22;;;;;;;;;8.33;7.33;;;;;-147.14;100.00;58812.66;4981920;28;50398;-46
2022/05/14 04:47:47;;;;;;;;;8.33;6.33;;;;;-147.14;100.00;58812.66;4980871;28;60241;-45
2022/05/14 04:50:15;;;;;;;;;9.00;7.00;;;;;-147.14;100.00;58812.66;4980923;28;61885;-45
2022/05/14 04:52:41;;;;;;;;;11.33;8.33;;;;;-147.14;100.00;58812.66;4978607;28;46510;-46
2022/05/14 04:55:07;;;;;;;;;6.33;5.67;;;;;-147.14;100.00;58812.66;4981910;28;45388;-47
2022/05/14 04:57:33;;;;;;;;;8.67;6.33;;;;;-147.14;100.00;58812.66;4982678;28;45233;-45
2022/05/14 04:59:58;;;;;;;;;8.00;8.00;;;;;-147.14;100.00;58812.66;4981870;28;45218;-45
2022/05/14 05:05:10;;;;;;;;;8.00;6.33;;;;;-147.14;100.00;58812.66;4982004;28;45417;-45
2022/05/14 05:07:35;;;;;;;;;9.00;8.00;;;;;-147.14;100.00;58812.66;4980388;28;62420;-45
2022/05/14 05:10:00;;;;;;;;;8.67;8.00;;;;;-147.14;100.00;58812.66;4981149;28;62132;-45
2022/05/14 05:12:26;;;;;;;;;12.67;8.00;;;;;-147.14;100.00;58812.66;4980904;28;60378;-46
2022/05/14 05:14:51;;;;;;;;;10.67;7.00;;;;;-147.14;100.00;58812.66;4981110;28;45319;-46
2022/05/14 05:17:16;;;;;;;;;6.33;6.00;;;;;-147.14;100.00;58812.66;4981563;28;45510;-46
2022/05/14 05:19:42;;;;;;;;;9.00;8.00;;;;;-147.14;100.00;58812.66;4981466;28;45868;-47
2022/05/14 05:22:07;;;;;;;;;8.00;8.00;;;;;-147.14;100.00;58812.66;4980567;28;67668;-47
2022/05/14 05:24:33;;;;;;;;;10.33;10.33;;;;;-147.14;100.00;58812.66;4981208;28;45657;-47
2022/05/14 05:26:58;;;;;;;;;12.33;8.33;;;;;-147.14;100.00;58812.66;4981488;28;45484;-48
2022/05/14 05:29:23;;;;;;;;;10.33;10.00;;;;;-147.14;100.00;58812.66;4979809;28;62814;-46
2022/05/14 05:31:49;;;;;;;;;14.33;9.67;;;;;-147.14;100.00;58812.66;4982581;28;66030;-47
2022/05/14 05:34:14;;;;;;;;;6.67;6.33;;;;;-147.14;100.00;58812.66;4981200;28;51935;-46
2022/05/14 05:36:40;;;;;;;;;11.00;8.00;;;;;-147.14;100.00;58812.66;4980170;28;58884;-46
2022/05/14 05:39:05;;;;;;;;;11.00;8.00;;;;;-147.14;100.00;58812.66;4981557;28;45305;-46
2022/05/14 05:41:31;;;;;;;;;12.67;10.33;;;;;-147.14;100.00;58812.66;4979851;28;65988;-46
2022/05/14 05:43:56;;;;;;;;;12.00;9.00;;;;;-147.14;100.00;58812.66;4981189;28;45287;-48
2022/05/14 05:46:21;;;;;;;;;12.67;9.33;;;;;-147.14;100.00;58812.66;4980434;28;58508;-46
2022/05/14 05:48:47;;;;;;;;;13.67;11.00;;;;;-147.14;100.00;58812.66;4969518;28;49568;-46
2022/05/14 05:51:12;;;;;;;;;13.00;13.00;;;;;-147.14;100.00;58812.66;4978761;28;46251;-46
2022/05/14 05:59:07;;;;;;;;;5.00;5.00;;;;;-147.14;100.00;58812.66;4977327;28;45644;-45
2022/05/14 06:01:33;;;;;;;;;6.00;6.00;;;;;-147.14;100.00;58812.66;4980451;28;46366;-46
2022/05/14 06:03:58;;;;;;;;;10.00;6.00;;;;;-147.14;100.00;58812.66;4980888;28;45300;-45
2022/05/14 06:06:24;;;;;;;;;6.33;4.67;;;;;-147.14;100.00;58812.66;4980269;28;60389;-46
2022/05/14 06:08:50;;;;;;;;;5.33;5.00;;;;;-147.14;100.00;58812.66;4980502;28;45327;-46
2022/05/14 06:11:16;;;;;;;;;6.33;5.00;;;;;-147.14;100.00;58812.66;4981144;28;45321;-47
2022/05/14 06:13:43;;;;;;;;;6.67;2.33;;;;;-147.14;100.00;58812.66;4979839;28;45387;-46
2022/05/14 06:16:11;;;;;;;;;4.33;4.33;;;;;-147.14;100.00;58812.66;4980950;28;45444;-47
2022/05/14 06:18:42;;;;;;;;;6.00;4.00;;;;;-147.14;100.00;58812.66;4980285;28;45413;-45
2022/05/14 06:21:08;;;;;;;;;4.33;3.67;;;;;-147.14;100.00;58812.66;4980776;28;45334;-47
2022/05/14 06:23:34;;;;;;;;;5.00;5.00;;;;;-147.14;100.00;58812.66;4979731;28;45378;-46
2022/05/14 06:25:59;;;;;;;;;4.67;3.33;;;;;-147.14;100.00;58812.66;4980706;28;45311;-47
2022/05/14 06:28:25;;;;;;;;;4.67;3.67;;;;;-147.14;100.00;58812.66;4979803;28;63090;-46
2022/05/14 06:30:50;;;;;;;;;2.00;2.00;;;;;-147.14;100.00;58812.66;4982339;28;46290;-47
2022/05/14 06:33:17;;;;;;;;;3.33;3.33;;;;;-147.14;100.00;58812.66;4980337;28;46311;-46
2022/05/14 06:35:43;;;;;;;;;5.00;3.00;;;;;-147.14;100.00;58812.66;4980647;28;45821;-48
2022/05/14 06:38:08;;;;;;;;;3.67;2.67;;;;;-147.14;100.00;58812.66;4980149;28;45305;-47
2022/05/14 06:40:35;;;;;;;;;6.67;3.33;;;;;-147.14;100.00;58812.66;4979878;28;46184;-46
2022/05/14 06:43:00;;;;;;;;;3.00;3.00;;;;;-147.14;100.00;58812.66;4962528;28;45523;-46
2022/05/14 06:45:26;;;;;;;;;5.00;3.67;;;;;-147.14;100.00;58812.66;4979599;28;59088;-47
2022/05/14 06:47:51;;;;;;;;;3.67;3.67;;;;;-147.14;100.00;58812.66;4978798;28;62174;-46
2022/05/14 06:50:17;;;;;;;;;3.00;3.00;;;;;-147.14;100.00;58812.66;4980257;28;45442;-46
2022/05/14 06:52:45;;;;;;;;;3.33;2.67;;;;;-147.14;100.00;58812.66;4979217;28;45330;-47
2022/05/14 06:55:14;;;;;;;;;6.00;4.67;;;;;-147.14;100.00;58812.66;4963417;28;45343;-46
2022/05/14 06:57:40;;;;;;;;;49.00;41.25;;;;;-147.14;100.00;58812.66;4963605;28;45534;-45
2022/05/14 07:00:08;;;;;;;;;5.00;5.00;;;;;-147.14;100.00;58812.66;4979794;28;45977;-46
2022/05/14 07:02:35;;;;;;;;;6.67;5.67;;;;;-147.14;100.00;58812.66;4979203;28;45351;-46
2022/05/14 07:07:45;;;;;;;;;5.00;3.33;;;;;-147.14;100.00;58812.66;4979354;28;45315;-46
2022/05/14 07:10:11;;;;;;;;;3.33;3.33;;;;;-147.14;100.00;58812.66;4979398;28;45473;-46
2022/05/14 07:12:36;;;;;;;;;3.67;2.00;;;;;-147.14;100.00;58812.66;4979486;28;45488;-44
2022/05/14 07:15:03;;;;;;;;;4.00;3.00;;;;;-147.14;100.00;58812.66;4979661;28;45424;-46
2022/05/14 07:17:29;;;;;;;;;41.67;36.00;;;;;-147.14;100.00;58812.66;4979239;28;45299;-47
2022/05/14 07:19:54;;;;;;;;;19.33;14.00;;;;;-147.14;100.00;58812.66;4979473;28;45438;-47
2022/05/14 07:22:20;;;;;;;;;11.00;7.67;;;;;-147.14;100.00;58812.66;4979600;28;45715;-46
2022/05/14 07:24:45;;;;;;;;;3.00;3.00;;;;;-147.14;100.00;58812.66;4979444;28;45495;-47
2022/05/14 07:27:11;;;;;;;;;4.00;4.00;;;;;-147.14;100.00;58812.66;4979520;28;45259;-47
2022/05/14 07:29:40;;;;;;;;;11.67;11.67;;;;;-147.14;100.00;58812.66;4979449;28;46425;-47
2022/05/14 07:32:10;;;;;;;;;16.00;16.00;;;;;-147.14;100.00;58812.66;4980837;28;45528;-46
2022/05/14 07:34:36;;;;;;;;;84.00;77.50;;;;;-147.14;100.00;58812.66;4979011;28;45263;-46
2022/05/14 07:37:06;;;;;;;;;17.33;15.00;;;;;-147.14;100.00;58812.66;4979450;28;45409;-45
2022/05/14 07:39:41;;;;;;;;;63.00;51.50;;;;;-147.14;100.00;58812.66;4978670;28;46316;-47
2022/05/14 07:42:11;;;;;;;;;46.50;39.50;;;;;-147.14;100.00;58812.66;4978119;28;45353;-46
2022/05/14 07:44:39;;;;;;;;;24.33;23.33;;;;;-147.14;100.00;58812.66;4972847;28;45308;-46
2022/05/14 07:47:06;;;;;;;;;12.33;11.67;;;;;-147.14;100.00;58812.66;4978972;28;45477;-46
2022/05/14 07:49:32;;;;;;;;;38.33;33.33;;;;;-147.14;100.00;58812.66;4960280;28;46240;-45
2022/05/14 07:51:58;;;;;;;;;46.67;36.00;;;;;-147.14;100.00;58812.66;4978660;28;45366;-45
2022/05/14 07:54:24;;;;;;;;;68.50;52.75;;;;;-147.14;100.00;58812.66;4984292;28;45789;-48
2022/05/14 07:56:49;;;;;;;;;64.00;52.00;;;;;-147.14;100.00;58812.66;4987642;28;45484;-45
2022/05/14 07:59:15;;;;;;;;;52.00;42.50;;;;;-147.14;100.00;58812.66;4983602;28;45465;-45
2022/05/14 08:01:41;;;;;;;;;22.00;22.00;;;;;-147.14;100.00;58812.66;4985153;28;45303;-45
2022/05/14 08:04:07;;;;;;;;;19.67;18.33;;;;;-147.14;100.00;58812.66;4977508;28;45564;-46
2022/05/14 08:06:33;;;;;;;;;14.00;12.00;;;;;-147.14;100.00;58812.66;4971861;28;45434;-46
2022/05/14 08:08:59;;;;;;;;;6.67;5.33;;;;;-147.14;100.00;58812.66;4982130;28;46430;-46
2022/05/14 08:11:24;;;;;;;;;5.67;4.33;;;;;-147.14;100.00;58812.66;4976686;28;45306;-47
2022/05/14 08:13:50;;;;;;;;;25.00;22.00;;;;;-147.14;100.00;58812.66;4980936;28;45544;-47
2022/05/14 08:16:16;;;;;;;;;61.50;46.75;;;;;-147.14;100.00;58812.66;4979254;28;45759;-48
2022/05/14 08:18:42;;;;;;;;;5.33;5.33;;;;;-147.14;100.00;58812.66;4983529;28;63320;-45
2022/05/14 08:26:35;;;;;;;;;4.33;4.33;;;;;-147.14;100.00;58812.66;4983129;28;45350;-47
2022/05/14 08:29:01;;;;;;;;;4.67;3.00;;;;;-147.14;100.00;58812.66;4981883;28;46036;-47
2022/05/14 08:31:27;;;;;;;;;12.00;12.00;;;;;-147.14;100.00;58812.66;4986186;28;45730;-47
2022/05/14 08:33:52;;;;;;;;;76.75;69.00;;;;;-147.14;100.00;58812.66;4981663;28;45813;-49
2022/05/14 08:36:17;;;;;;;;;15.67;15.33;;;;;-147.14;100.00;58812.66;4984511;28;50274;-48
2022/05/14 08:38:43;;;;;;;;;15.00;13.33;;;;;-147.14;100.00;58812.66;4983842;28;68203;-46
2022/05/14 08:41:08;;;;;;;;;7.00;5.67;;;;;-147.14;100.00;58812.66;4983552;28;65357;-47
2022/05/14 08:43:42;;;;;;;;;7.00;5.00;;;;;-147.14;100.00;58812.66;4978247;28;45343;-46
2022/05/14 08:46:09;;;;;;;;;12.67;11.33;;;;;-147.14;100.00;58812.66;4982941;28;45727;-47
2022/05/14 08:48:36;;;;;;;;;56.75;45.25;;;;;-147.14;100.00;58812.66;4966653;28;46445;-45
2022/05/14 08:51:06;;;;;;;;;11.00;9.00;;;;;-147.14;100.00;58812.66;4966136;28;45507;-45
2022/05/14 08:53:34;;;;;;;;;83.00;75.25;;;;;-147.14;100.00;58812.66;4966686;28;45588;-46
2022/05/14 08:56:21;;;;;;;;;6.00;6.00;;;;;-147.14;100.00;58812.66;4983258;28;45523;-47
2022/05/14 08:59:13;;;;;;;;;25.00;25.00;;;;;-147.14;100.00;58812.66;4984170;28;46370;-48
2022/05/14 09:01:42;;;;;;;;;27.33;25.67;;;;;-147.14;100.00;58812.66;4980611;28;45529;-46
2022/05/14 09:04:09;;;;;;;;;5.00;5.00;;;;;-147.14;100.00;58812.66;4980631;28;45440;-47
2022/05/14 09:06:39;;;;;;;;;4.67;3.00;;;;;-147.14;100.00;58812.66;4981128;28;45537;-46
2022/05/14 09:09:06;;;;;;;;;4.33;4.33;;;;;-147.14;100.00;58812.66;4981171;28;46282;-45
2022/05/14 09:11:54;;;;;;;;;5.00;4.33;;;;;-147.14;100.00;58812.66;4980561;28;45406;-45
2022/05/14 09:14:27;;;;;;;;;5.67;3.33;;;;;-147.14;100.00;58812.66;4979465;28;45410;-46
2022/05/14 09:17:20;;;;;;;;;4.67;4.67;;;;;-147.14;100.00;58812.66;4980966;28;45357;-46
2022/05/14 09:19:47;;;;;;;;;38.33;31.00;;;;;-147.14;100.00;58812.66;4978066;28;47009;-46
2022/05/14 09:22:35;;;;;;;;;18.00;17.00;;;;;-147.14;100.00;58812.66;4978613;28;45376;-45
2022/05/14 09:25:21;;;;;;;;;2.00;2.00;;;;;-147.14;100.00;58812.66;4973251;28;45599;-45
2022/05/14 09:27:54;;;;;;;;;0.67;0.67;;;;;-147.14;100.00;58812.66;4980026;28;45341;-44
2022/05/14 09:30:43;;;;;;;;;4.33;2.67;;;;;-147.14;100.00;58812.66;4980332;28;46316;-45
2022/05/14 09:33:27;;;;;;;;;5.00;3.00;;;;;-147.14;100.00;58812.66;4979014;28;45427;-46
2022/05/14 09:35:55;;;;;;;;;3.67;3.67;;;;;-147.14;100.00;58812.66;4979979;28;45415;-44
2022/05/14 09:38:23;;;;;;;;;3.00;3.00;;;;;-147.14;100.00;58812.66;4980955;28;45517;-45
2022/05/14 09:40:49;;;;;;;;;4.00;4.00;;;;;-147.14;100.00;58812.66;4980618;28;46337;-49
2022/05/14 09:43:14;;;;;;;;;86.25;77.00;;;;;-147.14;100.00;58812.66;4980753;28;45431;-46
2022/05/14 09:46:02;;;;;;;;;45.67;37.33;;;;;-147.14;100.00;58812.66;4980528;28;45393;-47
2022/05/14 09:48:33;;;;;;;;;53.33;41.67;;;;;-147.14;100.00;58812.66;4971131;28;45441;-45
2022/05/14 09:51:02;;;;;;;;;15.33;11.67;;;;;-147.14;100.00;58812.66;4979859;28;45346;-45
2022/05/14 09:53:33;;;;;;;;;4.00;3.33;;;;;-147.14;100.00;58812.66;4970281;28;45451;-45
2022/05/14 09:56:35;;;;;;;;;80.25;68.25;;;;;-147.14;100.00;58812.66;4980563;28;45659;-46
2022/05/14 09:59:03;;;;;;;;;13.67;11.67;;;;;-147.14;100.00;58812.66;4980373;28;45232;-47
2022/05/14 10:01:46;;;;;;;;;70.00;57.25;;;;;-147.14;100.00;58812.66;4958361;28;46167;-47
2022/05/14 10:04:44;;;;;;;;;23.00;20.00;;;;;-147.14;100.00;58812.66;4962855;28;45458;-44
2022/05/14 10:07:17;;;;;;;;;36.33;32.00;;;;;-147.14;100.00;58812.66;4973023;28;45347;-46
2022/05/14 10:10:18;;;;;;;;;3.67;2.33;;;;;-147.14;100.00;58812.66;4948893;28;45362;-47
2022/05/14 10:12:46;;;;;;;;;11.00;8.33;;;;;-147.14;100.00;58812.66;4972040;28;46519;-49
2022/05/14 10:15:23;;;;;;;;;9.67;9.67;;;;;-147.14;100.00;58812.66;4976377;28;45418;-54
2022/05/14 10:18:33;;;;;;;;;10.00;10.00;;;;;-147.14;100.00;58812.66;4973910;28;45391;-54
2022/05/14 10:21:28;;;;;;;;;8.00;6.00;;;;;-147.14;100.00;58812.66;4972846;28;45355;-55
2022/05/14 10:26:47;;;;;;;;;6.00;3.33;;;;;-147.14;100.00;58812.66;4972546;28;45749;-51
2022/05/14 10:29:27;;;;;;;;;3.33;2.33;;;;;-147.14;100.00;58812.66;4980013;28;45409;-49
2022/05/14 10:32:05;;;;;;;;;2.33;2.33;;;;;-147.14;100.00;58812.66;4970512;28;45483;-48
2022/05/14 10:34:48;;;;;;;;;4.33;4.33;;;;;-147.14;100.00;58812.66;4962049;28;46142;-47
2022/05/14 10:37:22;;;;;;;;;27.67;25.33;;;;;-147.14;100.00;58812.66;4977111;28;46093;-45
2022/05/14 10:40:05;;;;;;;;;6.00;5.00;;;;;-147.14;100.00;58812.66;4979732;28;45474;-48
2022/05/14 10:42:56;;;;;;;;;13.00;10.00;;;;;-147.14;100.00;58812.66;4978574;28;45728;-47
2022/05/14 10:45:33;;;;;;;;;5.33;4.33;;;;;-147.14;100.00;58812.66;4979621;28;45373;-53
2022/05/14 10:48:37;;;;;;;;;4.00;2.33;;;;;-147.14;100.00;58812.66;4970708;28;45362;-54
2022/05/14 10:51:05;;;;;;;;;3.67;3.67;;;;;-147.14;100.00;58812.66;4979688;28;45693;-54
2022/05/14 10:53:31;;;;;;;;;2.00;2.00;;;;;-147.14;100.00;58812.66;4975340;28;45284;-54
2022/05/14 10:56:10;;;;;;;;;5.67;4.00;;;;;-147.14;100.00;58812.66;4980527;28;45334;-54
2022/05/14 10:59:09;;;;;;;;;8.67;7.67;;;;;-147.14;100.00;58812.66;4977702;28;45654;-54
2022/05/14 11:01:43;;;;;;;;;12.00;11.00;;;;;-147.14;100.00;58812.66;4975340;28;45327;-55
2022/05/14 11:04:30;;;;;;;;;12.67;9.33;;;;;-147.14;100.00;58812.66;4973676;28;45322;-54
2022/05/14 11:06:58;;;;;;;;;3.00;2.33;;;;;-147.14;100.00;58812.66;4972273;28;45633;-53
2022/05/14 11:09:48;;;;;;;;;6.00;5.67;;;;;-147.14;100.00;58812.66;4978401;28;45328;-54
2022/05/14 11:12:19;;;;;;;;;4.67;4.67;;;;;-147.14;100.00;58812.66;4976305;28;45432;-47
2022/05/14 11:14:45;;;;;;;;;5.00;5.00;;;;;-147.14;100.00;58812.66;4978542;28;45580;-48
2022/05/14 11:17:19;;;;;;;;;5.00;5.00;;;;;-147.14;100.00;58812.66;4978679;28;45664;-49
2022/05/14 11:19:45;;;;;;;;;4.33;4.33;;;;;-147.14;100.00;58812.66;4978085;28;45616;-48
2022/05/14 11:22:30;;;;;;;;;5.00;3.00;;;;;-147.14;100.00;58812.66;4979206;28;45607;-48
2022/05/14 11:24:56;;;;;;;;;5.33;5.33;;;;;-147.14;100.00;58812.66;4957963;28;45496;-51
2022/05/14 11:27:28;;;;;;;;;5.00;5.00;;;;;-147.14;100.00;58812.66;4977767;28;66639;-52
2022/05/14 11:29:58;;;;;;;;;2.67;2.67;;;;;-147.14;100.00;58812.66;4978596;28;45381;-51
2022/05/14 11:32:24;;;;;;;;;3.33;1.67;;;;;-147.14;100.00;58812.66;4979573;28;46458;-51
2022/05/14 11:35:00;;;;;;;;;2.67;2.67;;;;;-147.14;100.00;58812.66;4955969;28;45661;-51
2022/05/14 11:37:38;;;;;;;;;4.33;3.67;;;;;-147.14;100.00;58812.66;4974545;28;45456;-51
2022/05/14 11:40:16;;;;;;;;;5.00;5.00;;;;;-147.14;100.00;58812.66;4975252;28;45657;-49